Time;durP1;ratioP1;P1;durP2;ratioP2;P2;SDS_P1;SDS_P2;PMS_P1;PMS_P2;Temp;Humidity;BMP_temperature;BMP_pressure;BME280_temperature;BME280_humidity;BME280_pressure;Samples;Min_cycle;Max_cycle;Signal;HPM_P1;HPM_P2
2023/08/12 00:01:47;;;;;;;15.45;4.00;;;;;;;15.28;100.00;100472.38;4974139;28;20026;-96
2023/08/12 00:04:14;;;;;;;18.17;5.00;;;;;;;15.30;100.00;100473.09;4987205;28;20054;-95
2023/08/12 00:06:41;;;;;;;16.60;4.35;;;;;;;15.25;100.00;100477.81;4989950;28;20031;-95
2023/08/12 00:09:07;;;;;;;15.57;3.40;;;;;;;15.18;100.00;100464.44;4988683;28;20057;-96
2023/08/12 00:11:33;;;;;;;12.48;3.20;;;;;;;15.15;100.00;100464.69;4991097;28;20507;-96
2023/08/12 00:13:58;;;;;;;11.68;3.00;;;;;;;15.09;100.00;100462.53;4974317;28;20034;-96
2023/08/12 00:16:23;;;;;;;21.17;3.58;;;;;;;15.17;100.00;100467.19;4974481;28;20058;-96
2023/08/12 00:18:49;;;;;;;12.95;2.72;;;;;;;15.19;100.00;100465.28;4974096;28;20038;-96
2023/08/12 00:21:14;;;;;;;23.08;4.70;;;;;;;15.24;100.00;100462.31;4974188;28;20027;-96
2023/08/12 00:23:40;;;;;;;15.10;3.55;;;;;;;15.14;100.00;100457.00;4974512;28;20030;-95
2023/08/12 00:26:07;;;;;;;23.65;4.65;;;;;;;15.23;100.00;100451.09;4993529;28;20022;-96
2023/08/12 00:28:33;;;;;;;15.77;4.43;;;;;;;15.19;100.00;100458.31;4991742;28;20026;-95
2023/08/12 00:30:58;;;;;;;20.65;3.75;;;;;;;15.27;100.00;100460.31;4973007;28;20027;-95
2023/08/12 00:33:24;;;;;;;18.77;3.53;;;;;;;15.28;100.00;100454.16;4973576;28;20477;-96
2023/08/12 00:35:49;;;;;;;19.67;4.93;;;;;;;15.23;100.00;100452.88;4972874;28;20037;-96
2023/08/12 00:38:15;;;;;;;18.95;4.40;;;;;;;15.29;100.00;100455.00;4973191;28;20513;-95
2023/08/12 00:40:40;;;;;;;9.70;2.53;;;;;;;15.25;100.00;100444.00;4974679;28;20022;-95
2023/08/12 00:43:05;;;;;;;14.02;3.85;;;;;;;15.24;100.00;100444.13;4973274;28;20033;-95
2023/08/12 00:45:31;;;;;;;18.90;3.78;;;;;;;15.18;100.00;100448.84;4974288;28;20057;-95
2023/08/12 00:47:57;;;;;;;19.08;5.18;;;;;;;15.15;100.00;100433.50;4992826;28;20033;-96
2023/08/12 00:50:23;;;;;;;16.35;4.25;;;;;;;15.19;100.00;100436.66;4994016;28;20642;-95
2023/08/12 00:52:49;;;;;;;17.65;4.25;;;;;;;15.18;100.00;100437.63;4992598;28;20033;-95
2023/08/12 00:55:15;;;;;;;11.45;4.22;;;;;;;15.23;100.00;100435.50;4992723;28;20029;-94
2023/08/12 00:57:41;;;;;;;21.77;3.72;;;;;;;15.29;100.00;100434.19;4992618;28;20034;-96
2023/08/12 01:00:07;;;;;;;13.60;3.70;;;;;;;15.15;100.00;100423.09;4991856;28;20026;-95
2023/08/12 01:02:33;;;;;;;19.17;3.70;;;;;;;15.14;100.00;100420.59;4973029;28;20501;-95
2023/08/12 01:04:59;;;;;;;17.83;3.42;;;;;;;15.12;100.00;100415.53;4972962;28;20066;-96
2023/08/12 01:07:24;;;;;;;20.38;3.97;;;;;;;15.13;100.00;100413.75;4972707;28;20413;-95
2023/08/12 01:09:49;;;;;;;19.83;4.43;;;;;;;15.16;100.00;100413.50;4972993;28;20543;-95
2023/08/12 01:12:28;;;;;;;20.33;5.50;;;;;;;15.13;100.00;100413.75;4974898;28;20401;-95
2023/08/12 01:15:16;;;;;;;23.88;6.20;;;;;;;15.05;100.00;100397.94;4975732;28;20089;-95
2023/08/12 01:17:42;;;;;;;12.50;3.42;;;;;;;15.08;100.00;100402.88;4986165;28;20034;-96
2023/08/12 01:20:09;;;;;;;24.67;5.90;;;;;;;14.99;100.00;100397.44;4972541;28;20023;-95
2023/08/12 01:22:40;;;;;;;19.67;4.40;;;;;;;14.98;100.00;100395.78;4972563;28;20034;-95
2023/08/12 01:25:06;;;;;;;21.63;4.75;;;;;;;15.02;100.00;100388.59;4973560;28;20061;-95
2023/08/12 01:27:32;;;;;;;16.98;3.65;;;;;;;15.09;100.00;100392.34;4989812;28;20033;-95
2023/08/12 01:29:58;;;;;;;17.08;4.20;;;;;;;14.99;100.00;100387.03;4985317;28;20433;-95
2023/08/12 01:32:28;;;;;;;17.40;3.33;;;;;;;14.95;100.00;100396.03;4972061;28;20026;-95
2023/08/12 01:35:04;;;;;;;17.00;3.45;;;;;;;15.02;100.00;100390.34;4981717;28;20061;-95
2023/08/12 01:37:32;;;;;;;26.23;4.97;;;;;;;14.88;100.00;100394.03;5007058;28;20019;-95
2023/08/12 01:40:00;;;;;;;19.05;3.85;;;;;;;14.90;100.00;100392.97;4988314;28;20027;-95
2023/08/12 01:42:27;;;;;;;19.50;4.25;;;;;;;14.85;100.00;100395.09;4973447;28;20027;-95
2023/08/12 01:44:53;;;;;;;13.63;4.55;;;;;;;14.89;100.00;100385.28;4975819;28;20023;-95
2023/08/12 01:47:19;;;;;;;28.00;4.18;;;;;;;14.83;100.00;100393.56;4976079;28;20035;-95
2023/08/12 01:49:44;;;;;;;22.02;4.35;;;;;;;14.91;100.00;100388.59;4976439;28;20035;-96
2023/08/12 01:52:10;;;;;;;16.42;4.13;;;;;;;14.91;100.00;100384.22;4990507;28;20045;-95
2023/08/12 01:54:35;;;;;;;19.77;4.82;;;;;;;14.85;100.00;100389.88;4984506;28;20545;-95
2023/08/12 01:57:08;;;;;;;22.63;4.80;;;;;;;14.88;100.00;100381.84;4975714;28;20037;-95
2023/08/12 01:59:36;;;;;;;23.70;5.13;;;;;;;14.96;100.00;100381.25;4975341;28;20027;-95
2023/08/12 02:02:02;;;;;;;30.60;5.53;;;;;;;14.91;100.00;100378.19;4975765;28;20034;-95
2023/08/12 02:04:28;;;;;;;20.45;5.35;;;;;;;14.82;100.00;100374.50;4975387;28;20026;-95
2023/08/12 02:06:54;;;;;;;30.77;5.10;;;;;;;14.85;100.00;100374.28;4975717;28;20069;-96
2023/08/12 02:09:20;;;;;;;19.17;4.03;;;;;;;14.90;100.00;100381.72;4977030;28;20384;-95
2023/08/12 02:11:45;;;;;;;17.63;4.95;;;;;;;14.97;100.00;100368.16;4984322;28;20027;-96
2023/08/12 02:14:11;;;;;;;25.98;4.40;;;;;;;14.85;100.00;100378.63;4975476;28;20030;-95
2023/08/12 02:16:36;;;;;;;19.77;4.50;;;;;;;14.86;100.00;100380.31;4975343;28;20477;-94
2023/08/12 02:19:02;;;;;;;20.70;4.72;;;;;;;14.77;100.00;100371.44;4976708;28;20038;-95
2023/08/12 02:21:27;;;;;;;23.98;4.50;;;;;;;14.77;100.00;100367.06;4975467;28;20037;-95
2023/08/12 02:23:53;;;;;;;13.45;4.07;;;;;;;14.79;100.00;100369.56;4975322;28;20026;-95
2023/08/12 02:26:18;;;;;;;18.23;3.85;;;;;;;14.84;100.00;100367.44;4975340;28;20058;-95
2023/08/12 02:28:43;;;;;;;23.38;5.00;;;;;;;14.79;100.00;100369.56;4990057;28;20081;-95
2023/08/12 02:31:09;;;;;;;25.95;5.22;;;;;;;14.76;100.00;100357.63;4994637;28;20046;-95
2023/08/12 02:33:34;;;;;;;19.42;4.75;;;;;;;14.68;100.00;100357.38;4994491;28;20109;-94
2023/08/12 02:35:59;;;;;;;26.98;4.25;;;;;;;14.66;100.00;100354.06;4994124;28;20027;-96
2023/08/12 02:38:25;;;;;;;19.63;4.03;;;;;;;14.69;100.00;100356.44;4994377;28;20113;-96
2023/08/12 02:40:50;;;;;;;24.48;4.93;;;;;;;14.65;100.00;100360.19;4975181;28;20018;-95
2023/08/12 02:43:19;;;;;;;20.45;5.18;;;;;;;14.62;100.00;100347.44;4991355;28;20027;-96
2023/08/12 02:45:44;;;;;;;22.88;4.75;;;;;;;14.71;100.00;100351.13;4991330;28;20393;-96
2023/08/12 02:48:10;;;;;;;34.70;6.38;;;;;;;14.67;100.00;100350.53;4988003;28;20033;-96
2023/08/12 02:50:36;;;;;;;30.33;5.65;;;;;;;14.65;100.00;100351.59;4977049;28;20029;-96
2023/08/12 02:53:02;;;;;;;32.47;5.22;;;;;;;14.59;100.00;100347.69;4974401;28;20439;-96
2023/08/12 02:55:28;;;;;;;22.20;4.97;;;;;;;14.63;100.00;100343.94;4979120;28;20038;-96
2023/08/12 02:57:53;;;;;;;32.33;6.15;;;;;;;14.63;100.00;100343.06;4987070;28;20058;-96
2023/08/12 03:00:18;;;;;;;19.77;4.18;;;;;;;14.60;100.00;100343.31;4994403;28;20061;-95
2023/08/12 03:02:44;;;;;;;21.42;3.92;;;;;;;14.57;100.00;100340.97;4987386;28;20033;-95
2023/08/12 03:05:10;;;;;;;25.52;5.57;;;;;;;14.65;100.00;100334.22;4992484;28;20476;-96
2023/08/12 03:07:35;;;;;;;25.13;5.47;;;;;;;14.68;100.00;100327.97;4993242;28;20373;-96
2023/08/12 03:10:00;;;;;;;22.50;4.80;;;;;;;14.61;100.00;100330.22;4976518;28;20031;-96
2023/08/12 03:12:26;;;;;;;24.98;4.88;;;;;;;14.62;100.00;100325.84;4974732;28;20023;-96
2023/08/12 03:15:05;;;;;;;23.17;4.78;;;;;;;14.61;100.00;100324.22;4990709;28;20030;-96
2023/08/12 03:17:30;;;;;;;22.77;4.75;;;;;;;14.78;100.00;100318.53;4994450;28;20054;-95
2023/08/12 03:19:59;;;;;;;18.10;4.38;;;;;;;14.69;100.00;100316.66;4977353;28;20457;-96
2023/08/12 03:22:24;;;;;;;22.73;4.85;;;;;;;14.75;100.00;100316.16;4974229;28;20492;-95
2023/08/12 03:24:50;;;;;;;21.48;4.97;;;;;;;14.75;100.00;100314.41;4986490;28;20115;-96
2023/08/12 03:27:15;;;;;;;23.38;4.47;;;;;;;14.64;100.00;100310.97;4973836;28;20077;-95
2023/08/12 03:29:40;;;;;;;17.48;4.15;;;;;;;14.64;100.00;100309.19;4979723;28;20065;-95
2023/08/12 03:32:06;;;;;;;25.60;5.55;;;;;;;14.70;100.00;100302.69;4993618;28;20030;-95
2023/08/12 03:34:31;;;;;;;18.83;4.93;;;;;;;14.76;100.00;100303.06;4991424;28;20041;-95
2023/08/12 03:36:56;;;;;;;22.65;3.90;;;;;;;14.75;100.00;100303.16;4978329;28;20371;-95
2023/08/12 03:39:22;;;;;;;19.15;4.30;;;;;;;14.74;100.00;100296.34;4984062;28;20062;-96
2023/08/12 03:41:50;;;;;;;20.35;4.72;;;;;;;14.79;100.00;100299.41;4993470;28;20030;-96
2023/08/12 03:44:15;;;;;;;21.33;4.13;;;;;;;14.73;100.00;100292.91;4990095;28;20118;-95
2023/08/12 03:46:40;;;;;;;27.38;4.82;;;;;;;14.73;100.00;100294.69;4978484;28;20115;-95
2023/08/12 03:49:06;;;;;;;27.75;5.65;;;;;;;14.71;100.00;100289.59;4973565;28;20089;-95
2023/08/12 03:51:31;;;;;;;19.50;4.03;;;;;;;14.73;100.00;100281.69;4975927;28;20045;-96
2023/08/12 03:53:57;;;;;;;23.00;4.55;;;;;;;14.76;100.00;100281.47;4982328;28;20384;-95
2023/08/12 03:56:23;;;;;;;30.13;5.40;;;;;;;14.68;100.00;100282.06;4979512;28;20038;-94
2023/08/12 03:58:48;;;;;;;23.90;5.57;;;;;;;14.81;100.00;100268.94;4973272;28;20508;-95
2023/08/12 04:01:13;;;;;;;21.85;4.03;;;;;;;14.83;100.00;100279.22;4977438;28;20025;-95
2023/08/12 04:03:39;;;;;;;18.33;4.60;;;;;;;14.79;100.00;100270.81;4992571;28;20060;-95
2023/08/12 04:06:04;;;;;;;17.00;4.10;;;;;;;14.81;100.00;100266.34;4992056;28;20481;-95
2023/08/12 04:08:32;;;;;;;26.35;4.63;;;;;;;14.74;100.00;100268.56;4992702;28;20030;-94
2023/08/12 04:10:57;;;;;;;18.05;4.68;;;;;;;14.81;100.00;100273.31;4992945;28;20034;-95
2023/08/12 04:13:23;;;;;;;18.73;4.25;;;;;;;14.83;100.00;100272.25;4989784;28;20034;-95
2023/08/12 04:15:49;;;;;;;21.40;5.57;;;;;;;14.85;100.00;100274.72;4974275;28;20034;-96
2023/08/12 04:18:15;;;;;;;27.23;5.30;;;;;;;14.68;100.00;100273.41;4973413;28;20053;-95
2023/08/12 04:20:40;;;;;;;24.13;4.88;;;;;;;14.71;100.00;100273.19;4973333;28;20031;-96
2023/08/12 04:23:06;;;;;;;27.17;6.13;;;;;;;14.73;100.00;100269.53;4973077;28;20469;-95
2023/08/12 04:25:31;;;;;;;17.08;4.57;;;;;;;14.81;100.00;100268.13;4987614;28;20035;-95
2023/08/12 04:27:57;;;;;;;21.83;4.40;;;;;;;14.80;100.00;100269.88;4984573;28;20508;-95
2023/08/12 04:30:23;;;;;;;22.73;5.22;;;;;;;14.74;100.00;100257.38;4982449;28;20031;-95
2023/08/12 04:32:48;;;;;;;27.13;4.40;;;;;;;14.71;100.00;100262.81;4977493;28;20374;-95
2023/08/12 04:35:14;;;;;;;22.58;5.38;;;;;;;14.63;100.00;100260.81;4974189;28;20521;-94
2023/08/12 04:37:39;;;;;;;24.05;5.03;;;;;;;14.64;100.00;100261.63;4978682;28;20023;-95
2023/08/12 04:40:07;;;;;;;18.02;4.65;;;;;;;14.67;100.00;100266.56;4987987;28;20037;-94
2023/08/12 04:42:32;;;;;;;23.00;4.95;;;;;;;14.63;100.00;100265.16;4982527;28;20089;-95
2023/08/12 04:44:58;;;;;;;19.50;4.35;;;;;;;14.73;100.00;100260.91;4986069;28;20034;-94
2023/08/12 04:47:23;;;;;;;35.35;5.72;;;;;;;14.63;100.00;100272.94;4993010;28;20030;-94
2023/08/12 04:49:48;;;;;;;20.30;4.57;;;;;;;14.61;100.00;100267.06;4987845;28;20108;-95
2023/08/12 04:52:14;;;;;;;26.58;5.03;;;;;;;14.62;100.00;100263.50;4984572;28;20110;-95
2023/08/12 04:54:39;;;;;;;15.75;3.88;;;;;;;14.59;100.00;100259.38;4972254;28;20037;-93
2023/08/12 04:57:05;;;;;;;17.92;4.03;;;;;;;14.66;100.00;100265.75;4973252;28;20433;-94
2023/08/12 04:59:31;;;;;;;26.70;5.13;;;;;;;14.71;100.00;100268.00;4977705;28;20030;-94
2023/08/12 05:01:56;;;;;;;19.17;4.20;;;;;;;14.68;100.00;100263.88;4978445;28;20027;-95
2023/08/12 05:04:21;;;;;;;23.35;4.15;;;;;;;14.69;100.00;100259.50;4981113;28;20492;-95
2023/08/12 05:06:47;;;;;;;24.42;4.68;;;;;;;14.76;100.00;100250.28;4988916;28;20134;-94
2023/08/12 05:09:14;;;;;;;26.25;5.50;;;;;;;14.79;100.00;100249.22;4987000;28;20463;-94
2023/08/12 05:11:39;;;;;;;25.33;6.13;;;;;;;14.82;100.00;100254.97;4976694;28;20032;-94
2023/08/12 05:14:04;;;;;;;33.63;5.15;;;;;;;14.88;100.00;100257.13;4987955;28;20049;-95
2023/08/12 05:16:30;;;;;;;27.05;4.97;;;;;;;14.89;100.00;100250.13;4983463;28;20554;-94
2023/08/12 05:18:55;;;;;;;22.30;5.20;;;;;;;14.90;100.00;100255.22;4983040;28;20026;-95
2023/08/12 05:21:20;;;;;;;25.92;4.40;;;;;;;14.93;100.00;100259.34;4974395;28;20042;-95
2023/08/12 05:23:46;;;;;;;20.67;4.20;;;;;;;14.96;100.00;100257.31;4978336;28;20515;-96
2023/08/12 05:26:11;;;;;;;28.08;5.72;;;;;;;15.04;100.00;100259.31;4988875;28;20116;-96
2023/08/12 05:28:36;;;;;;;22.27;3.88;;;;;;;14.96;100.00;100253.91;4974511;28;20034;-96
2023/08/12 05:31:02;;;;;;;27.02;4.70;;;;;;;15.07;100.00;100253.06;4976620;28;20432;-96
2023/08/12 05:33:27;;;;;;;25.40;5.88;;;;;;;15.07;100.00;100247.84;4985542;28;20038;-96
2023/08/12 05:35:52;;;;;;;25.05;4.75;;;;;;;15.04;100.00;100248.09;4982148;28;20101;-96
2023/08/12 05:38:18;;;;;;;25.02;6.00;;;;;;;15.06;100.00;100251.41;4989153;28;20019;-96
2023/08/12 05:40:43;;;;;;;24.45;3.83;;;;;;;15.09;100.00;100248.56;4983982;28;20018;-96
2023/08/12 05:43:09;;;;;;;28.70;5.15;;;;;;;15.18;100.00;100251.25;4984705;28;20409;-95
2023/08/12 05:45:34;;;;;;;31.73;5.05;;;;;;;15.16;100.00;100253.16;4983753;28;20118;-96
2023/08/12 05:47:59;;;;;;;21.05;4.68;;;;;;;15.22;100.00;100257.06;4971678;28;20551;-95
2023/08/12 05:50:25;;;;;;;23.42;4.38;;;;;;;15.23;100.00;100243.09;4972802;28;20049;-96
2023/08/12 05:52:50;;;;;;;21.25;4.78;;;;;;;15.30;100.00;100236.44;4984213;28;20027;-96
2023/08/12 05:55:16;;;;;;;19.52;3.42;;;;;;;15.43;100.00;100240.66;4971736;28;20033;-96
2023/08/12 05:57:41;;;;;;;30.08;4.47;;;;;;;15.40;100.00;100250.34;4971705;28;20027;-96
2023/08/12 06:00:07;;;;;;;25.15;4.60;;;;;;;15.44;100.00;100245.75;4978626;28;20034;-96
2023/08/12 06:02:32;;;;;;;31.27;5.55;;;;;;;15.48;100.00;100247.13;4982293;28;20030;-96
2023/08/12 06:04:58;;;;;;;25.00;6.18;;;;;;;15.52;100.00;100245.13;4981905;28;20068;-95
2023/08/12 06:07:23;;;;;;;26.20;4.43;;;;;;;15.57;100.00;100246.41;4983944;28;20392;-95
2023/08/12 06:09:50;;;;;;;35.15;4.95;;;;;;;15.57;100.00;100236.00;4983465;28;20062;-96
2023/08/12 06:12:26;;;;;;;20.15;3.78;;;;;;;15.58;100.00;100242.00;4980883;28;20027;-96
2023/08/12 06:14:52;;;;;;;22.60;4.55;;;;;;;15.59;100.00;100238.47;4978820;28;20166;-96
2023/08/12 06:17:19;;;;;;;22.80;3.88;;;;;;;15.63;100.00;100247.69;4979326;28;20082;-95
2023/08/12 06:19:44;;;;;;;28.80;4.95;;;;;;;15.67;100.00;100243.03;4980130;28;20019;-96
2023/08/12 06:22:10;;;;;;;32.28;4.38;;;;;;;15.73;100.00;100240.00;4980895;28;20054;-96
2023/08/12 06:24:35;;;;;;;20.25;3.80;;;;;;;15.78;100.00;100232.63;4977120;28;20496;-95
2023/08/12 06:27:01;;;;;;;26.00;4.72;;;;;;;15.81;100.00;100243.59;4979924;28;20058;-94
2023/08/12 06:29:26;;;;;;;30.02;4.85;;;;;;;15.79;100.00;100242.88;4977665;28;20022;-96
2023/08/12 06:31:52;;;;;;;21.90;3.90;;;;;;;15.87;100.00;100244.84;4979550;28;20027;-96
2023/08/12 06:34:18;;;;;;;28.58;5.18;;;;;;;15.94;100.00;100251.19;4988258;28;20031;-94
2023/08/12 06:36:43;;;;;;;26.05;4.57;;;;;;;16.02;100.00;100247.97;4994095;28;20029;-95
2023/08/12 06:39:08;;;;;;;22.92;4.55;;;;;;;15.98;100.00;100257.00;4994007;28;20472;-95
2023/08/12 06:41:34;;;;;;;22.73;4.28;;;;;;;16.14;100.00;100254.78;4988585;28;20018;-96
2023/08/12 06:44:00;;;;;;;33.83;5.53;;;;;;;16.18;100.00;100250.94;4986359;28;20109;-96
2023/08/12 06:46:26;;;;;;;28.75;4.07;;;;;;;16.03;100.00;100247.84;4988016;28;20026;-96
2023/08/12 06:48:51;;;;;;;24.08;4.53;;;;;;;16.18;100.00;100261.34;4975704;28;20066;-96
2023/08/12 06:51:16;;;;;;;21.88;4.55;;;;;;;16.34;100.00;100258.31;4978896;28;20105;-96
2023/08/12 06:53:42;;;;;;;25.58;3.83;;;;;;;16.16;100.00;100247.63;4979479;28;20120;-95
2023/08/12 06:56:07;;;;;;;29.73;4.90;;;;;;;16.42;100.00;100260.25;4992898;28;20038;-93
2023/08/12 06:58:33;;;;;;;22.65;3.95;;;;;;;16.42;100.00;100258.47;4980101;28;20022;-95
2023/08/12 07:00:59;;;;;;;28.58;4.70;;;;;;;16.25;100.00;100267.69;4979630;28;20523;-94
2023/08/12 07:03:25;;;;;;;29.45;4.60;;;;;;;16.05;100.00;100258.13;4976902;28;20046;-94
2023/08/12 07:05:52;;;;;;;21.40;3.95;;;;;;;16.02;100.00;100259.22;4980084;28;20038;-94
2023/08/12 07:08:18;;;;;;;22.77;4.75;;;;;;;16.14;100.00;100253.91;4984731;28;20034;-96
2023/08/12 07:10:43;;;;;;;33.35;4.88;;;;;;;16.06;100.00;100257.16;4980886;28;20077;-94
2023/08/12 07:13:08;;;;;;;35.80;7.28;;;;;;;15.96;100.00;100245.88;4983081;28;20049;-96
2023/08/12 07:15:34;;;;;;;25.40;4.95;;;;;;;16.37;100.00;100239.81;4982221;28;20026;-95
2023/08/12 07:17:59;;;;;;;34.88;5.50;;;;;;;16.50;100.00;100231.75;4982879;28;20022;-95
2023/08/12 07:20:25;;;;;;;25.63;4.38;;;;;;;16.38;100.00;100238.00;4980104;28;20022;-94
2023/08/12 07:22:51;;;;;;;28.33;4.63;;;;;;;17.26;100.00;100236.47;4982178;28;20022;-95
2023/08/12 07:25:16;;;;;;;28.95;5.88;;;;;;;21.37;89.27;100233.16;4980659;28;20085;-95
2023/08/12 07:27:42;;;;;;;26.48;4.22;;;;;;;22.56;73.71;100239.59;4987234;28;20027;-95
2023/08/12 07:30:08;;;;;;;27.15;5.38;;;;;;;23.78;67.93;100244.25;4990617;28;20034;-94
2023/08/12 07:32:33;;;;;;;22.42;4.13;;;;;;;24.87;63.32;100245.31;4972970;28;20396;-94
2023/08/12 07:34:59;;;;;;;14.85;3.08;;;;;;;26.11;57.67;100257.44;4977621;28;20139;-96
2023/08/12 07:37:25;;;;;;;16.60;3.80;;;;;;;26.49;55.54;100249.91;4986230;28;20023;-95
2023/08/12 07:39:51;;;;;;;21.05;3.80;;;;;;;26.08;55.66;100252.53;4977929;28;20026;-95
2023/08/12 07:42:16;;;;;;;17.45;3.20;;;;;;;24.89;58.65;100248.59;4976167;28;20041;-93
2023/08/12 07:44:41;;;;;;;13.93;3.42;;;;;;;25.23;59.56;100248.97;4974510;28;20027;-92
2023/08/12 07:47:07;;;;;;;14.93;2.90;;;;;;;25.33;58.11;100244.19;4985501;28;20365;-93
2023/08/12 07:49:32;;;;;;;18.88;4.05;;;;;;;21.84;69.10;100249.25;4985477;28;20037;-94
2023/08/12 07:51:57;;;;;;;16.70;3.08;;;;;;;22.32;70.81;100237.84;4989936;28;20022;-96
2023/08/12 07:54:23;;;;;;;18.05;3.65;;;;;;;23.68;62.77;100233.94;4979406;28;20023;-95
2023/08/12 07:56:48;;;;;;;28.05;3.85;;;;;;;22.01;67.24;100235.13;4985640;28;20062;-95
2023/08/12 07:59:14;;;;;;;20.08;3.65;;;;;;;21.50;72.64;100237.13;4986855;28;20026;-95
2023/08/12 08:01:39;;;;;;;17.88;3.33;;;;;;;20.70;73.95;100241.06;4987472;28;20405;-96
2023/08/12 08:04:05;;;;;;;16.48;4.80;;;;;;;20.91;75.90;100243.25;5001927;28;20065;-95
2023/08/12 08:06:31;;;;;;;21.73;3.80;;;;;;;20.61;75.86;100249.88;4984624;28;20031;-94
2023/08/12 08:11:35;;;;;;;19.85;3.60;;;;;;;19.96;78.66;100231.97;5096437;23;20058;-96
2023/08/12 08:14:00;;;;;;;19.85;4.38;;;;;;;20.00;80.46;100230.69;5016264;28;20114;-96
2023/08/12 08:16:26;;;;;;;15.57;3.13;;;;;;;19.84;80.89;100238.44;4994485;28;20121;-96
2023/08/12 08:18:52;;;;;;;18.52;3.17;;;;;;;19.42;81.22;100234.66;5086020;23;20041;-94
2023/08/12 08:21:20;;;;;;;16.10;2.85;;;;;;;19.56;81.07;100229.88;5249533;23;20030;-96
2023/08/12 08:24:12;;;;;;;17.45;3.15;;;;;;;19.69;80.84;100230.31;4987872;23;20018;-96
2023/08/12 08:26:40;;;;;;;13.80;2.88;;;;;;;19.39;81.73;100239.38;4974634;28;20039;-95
2023/08/12 08:29:12;;;;;;;17.63;3.13;;;;;;;19.15;83.33;100243.41;4981113;28;20046;-96
2023/08/12 08:31:39;;;;;;;15.30;3.03;;;;;;;18.87;84.96;100247.00;4975908;28;20031;-94
2023/08/12 08:34:04;;;;;;;19.92;3.78;;;;;;;18.77;86.91;100236.59;4970866;28;20054;-94
2023/08/12 08:36:29;;;;;;;20.98;3.88;;;;;;;18.58;86.80;100255.78;4969622;28;20033;-95
2023/08/12 08:38:55;;;;;;;18.50;3.08;;;;;;;18.48;90.39;100257.63;4968215;28;20018;-95
2023/08/12 08:41:21;;;;;;;17.65;2.40;;;;;;;18.60;91.90;100253.84;4971270;28;20408;-95
2023/08/12 08:43:48;;;;;;;16.15;2.58;;;;;;;18.41;93.23;100246.94;4969264;28;20027;-95
2023/08/12 08:46:16;;;;;;;9.07;2.40;;;;;;;18.51;93.84;100241.69;4968022;28;20469;-96
2023/08/12 08:48:42;;;;;;;14.32;2.40;;;;;;;18.87;89.03;100241.78;4971029;28;20110;-95
2023/08/12 08:51:09;;;;;;;14.38;2.15;;;;;;;19.32;86.14;100236.53;4966856;28;20380;-95
2023/08/12 08:53:37;;;;;;;15.70;3.10;;;;;;;19.61;83.69;100244.13;4969782;28;20057;-95
2023/08/12 08:56:05;;;;;;;10.63;2.10;;;;;;;20.07;80.24;100244.00;4969359;28;20022;-94
2023/08/12 08:58:31;;;;;;;10.73;1.90;;;;;;;21.49;72.12;100246.00;4964454;28;20034;-95
2023/08/12 09:00:57;;;;;;;7.50;1.92;;;;;;;22.31;68.87;100245.91;4970417;28;20030;-94
2023/08/12 09:03:23;;;;;;;15.48;2.65;;;;;;;22.09;67.28;100258.75;4969855;28;20450;-95
2023/08/12 09:05:50;;;;;;;12.52;2.20;;;;;;;21.58;68.61;100247.63;4969334;28;20034;-95
2023/08/12 09:08:16;;;;;;;9.80;1.90;;;;;;;21.13;68.91;100256.75;4966808;28;20108;-94
2023/08/12 09:10:42;;;;;;;11.30;2.15;;;;;;;21.31;69.29;100253.97;4969350;28;20018;-93
2023/08/12 09:13:10;;;;;;;11.30;2.10;;;;;;;21.36;70.67;100249.91;4969765;28;20037;-95
2023/08/12 09:15:36;;;;;;;12.02;2.42;;;;;;;20.64;72.92;100248.75;4969503;28;20031;-95
2023/08/12 09:18:04;;;;;;;10.20;2.33;;;;;;;20.63;73.27;100249.72;4966776;28;20035;-96
2023/08/12 09:20:30;;;;;;;13.85;1.77;;;;;;;20.38;75.23;100252.19;4969881;28;20516;-96
2023/08/12 09:22:59;;;;;;;7.82;2.08;;;;;;;19.95;78.34;100246.06;4971257;28;20035;-96
2023/08/12 09:25:29;;;;;;;10.55;1.48;;;;;;;20.08;77.77;100249.09;4971132;28;20035;-96
2023/08/12 09:27:57;;;;;;;9.45;1.98;;;;;;;19.86;79.78;100257.44;4970845;28;20027;-96
2023/08/12 09:30:23;;;;;;;6.07;1.85;;;;;;;20.03;78.94;100259.19;4996251;23;20038;-93
2023/08/12 09:33:03;;;;;;;6.95;1.70;;;;;;;19.54;80.21;100258.81;4967649;28;20029;-94
2023/08/12 09:35:33;;;;;;;8.32;1.25;;;;;;;20.06;79.32;100258.88;4968335;28;20042;-94
2023/08/12 09:38:01;;;;;;;6.35;1.38;;;;;;;19.97;79.06;100266.84;4966204;28;20109;-95
2023/08/12 09:40:27;;;;;;;6.15;1.58;;;;;;;20.06;77.34;100258.06;4968570;28;20649;-95
2023/08/12 09:42:52;;;;;;;16.55;2.67;;;;;;;20.61;76.25;100254.31;4961752;28;20126;-95
2023/08/12 09:45:20;;;;;;;8.65;1.25;;;;;;;20.67;75.25;100253.66;4959879;28;20069;-95
2023/08/12 09:47:46;;;;;;;9.15;1.88;;;;;;;20.89;73.42;100245.22;4963876;28;20027;-95
2023/08/12 09:50:13;;;;;;;7.55;1.95;;;;;;;20.99;71.89;100250.31;4959077;28;20038;-94
2023/08/12 09:52:39;;;;;;;10.65;1.73;;;;;;;21.07;71.53;100242.47;4959356;28;20023;-94
2023/08/12 09:55:06;;;;;;;10.48;1.63;;;;;;;20.92;71.42;100239.66;4961871;28;20078;-95
2023/08/12 09:57:33;;;;;;;8.07;1.40;;;;;;;20.90;70.71;100251.31;4956209;28;20023;-95
2023/08/12 10:00:00;;;;;;;10.57;1.80;;;;;;;21.01;70.82;100242.28;4968383;28;20432;-95
2023/08/12 10:02:27;;;;;;;9.15;1.67;;;;;;;21.23;69.90;100251.34;4968738;28;20031;-96
2023/08/12 10:04:56;;;;;;;7.82;1.75;;;;;;;21.20;68.86;100251.69;4974894;28;20481;-96
2023/08/12 10:07:23;;;;;;;5.95;1.25;;;;;;;22.01;66.14;100245.63;4969728;28;20410;-96
2023/08/12 10:09:49;;;;;;;14.77;3.17;;;;;;;22.01;65.40;100245.63;4984405;28;20066;-95
2023/08/12 10:12:15;;;;;;;9.10;2.08;;;;;;;21.85;64.88;100256.16;4973150;28;20031;-96
2023/08/12 10:14:41;;;;;;;9.25;1.58;;;;;;;21.47;66.92;100250.59;4973194;28;20477;-96
2023/08/12 10:17:09;;;;;;;5.70;1.13;;;;;;;21.81;65.71;100245.16;4975270;28;20035;-95
2023/08/12 10:19:35;;;;;;;8.05;1.75;;;;;;;22.05;63.72;100240.88;4972993;28;20126;-96
2023/08/12 10:22:03;;;;;;;8.05;1.35;;;;;;;21.89;65.04;100249.59;4968680;28;20042;-96
2023/08/12 10:24:29;;;;;;;5.78;1.33;;;;;;;21.62;64.15;100246.31;4972060;28;20031;-96
2023/08/12 10:26:55;;;;;;;4.85;1.08;;;;;;;21.27;64.41;100236.94;4972123;28;20031;-96
2023/08/12 10:29:24;;;;;;;7.07;1.50;;;;;;;21.03;65.52;100235.09;4971600;28;20033;-95
2023/08/12 10:31:50;;;;;;;8.50;2.05;;;;;;;21.14;65.28;100243.47;4970376;28;20027;-94
2023/08/12 10:34:23;;;;;;;10.90;1.98;;;;;;;21.23;64.97;100249.53;4971148;28;20524;-96
2023/08/12 10:36:54;;;;;;;4.90;1.10;;;;;;;21.52;63.50;100235.16;4982414;28;20039;-96
2023/08/12 10:39:24;;;;;;;11.52;1.88;;;;;;;21.76;63.03;100239.59;4967961;28;20063;-96
2023/08/12 10:41:54;;;;;;;6.17;1.40;;;;;;;22.02;64.09;100236.78;4987350;28;20090;-96
2023/08/12 10:44:21;;;;;;;9.68;3.00;;;;;;;21.97;63.38;100231.16;4971770;28;20030;-96
2023/08/12 10:46:51;;;;;;;5.75;1.33;;;;;;;21.64;64.08;100239.09;4969663;28;20066;-95
2023/08/12 10:49:22;;;;;;;9.15;1.92;;;;;;;21.56;64.77;100239.13;4976598;28;20115;-96
2023/08/12 10:51:54;;;;;;;7.55;1.73;;;;;;;21.36;64.85;100242.03;4967417;28;20027;-96
2023/08/12 10:54:29;;;;;;;8.23;1.83;;;;;;;21.47;65.63;100238.28;4966736;28;20026;-95
2023/08/12 10:57:10;;;;;;;12.38;1.35;;;;;;;21.57;64.50;100236.31;4965048;28;20038;-96
2023/08/12 10:59:45;;;;;;;8.60;2.15;;;;;;;21.55;63.92;100234.81;4976347;28;20023;-96
2023/08/12 11:02:36;;;;;;;6.95;1.60;;;;;;;21.50;63.16;100230.06;4973175;28;20027;-96
2023/08/12 11:05:08;;;;;;;6.28;1.25;;;;;;;21.64;63.84;100223.34;4971993;28;20054;-96
2023/08/12 11:07:42;;;;;;;12.55;2.38;;;;;;;22.03;62.84;100222.63;4971031;28;20034;-94
2023/08/12 11:10:17;;;;;;;7.78;1.65;;;;;;;22.42;61.67;100216.63;4971601;28;20019;-96
2023/08/12 11:12:56;;;;;;;9.55;2.28;;;;;;;22.22;61.73;100211.75;4965158;28;20060;-96